Time;durP1;ratioP1;P1;durP2;ratioP2;P2;SDS_P1;SDS_P2;PMS_P1;PMS_P2;Temp;Humidity;BMP_temperature;BMP_pressure;BME280_temperature;BME280_humidity;BME280_pressure;Samples;Min_cycle;Max_cycle;Signal;HPM_P1;HPM_P2
2020/12/25 00:02:09;;;;;;;10.45;4.25;;;;;;;5.49;80.82;100274.38;4979909;28;20074;-79
2020/12/25 00:04:36;;;;;;;7.20;4.00;;;;;;;5.46;81.05;100280.59;4953248;28;20051;-79
2020/12/25 00:07:06;;;;;;;7.38;3.60;;;;;;;5.47;80.43;100282.31;4966723;28;20047;-85
2020/12/25 00:09:33;;;;;;;7.10;3.40;;;;;;;5.47;80.99;100290.19;4964819;28;20051;-81
2020/12/25 00:11:59;;;;;;;7.50;3.80;;;;;;;5.47;81.37;100297.19;4960638;28;20051;-82
2020/12/25 00:14:26;;;;;;;7.30;3.70;;;;;;;5.50;80.62;100297.97;4959110;28;20051;-81
2020/12/25 00:16:52;;;;;;;6.43;3.55;;;;;;;5.48;80.65;100301.56;4964905;28;20051;-81
2020/12/25 00:19:18;;;;;;;6.78;3.30;;;;;;;5.44;80.45;100307.78;4963978;28;20126;-83
2020/12/25 00:21:45;;;;;;;7.82;3.50;;;;;;;5.46;80.63;100300.72;4958928;28;20129;-81
2020/12/25 00:24:11;;;;;;;6.78;3.60;;;;;;;5.50;79.91;100299.75;4964748;28;20051;-82
2020/12/25 00:26:38;;;;;;;10.48;3.47;;;;;;;5.50;79.61;100308.50;4961629;28;20059;-81
2020/12/25 00:29:04;;;;;;;6.85;3.28;;;;;;;5.45;80.22;100309.50;4957711;29;20047;-82
2020/12/25 00:31:36;;;;;;;6.82;3.20;;;;;;;5.41;80.44;100307.84;4958290;28;20051;-83
2020/12/25 00:34:04;;;;;;;5.93;3.78;;;;;;;5.39;81.33;100307.03;4957538;28;20494;-82
2020/12/25 00:36:45;;;;;;;5.35;2.95;;;;;;;5.39;80.83;100312.28;4959488;28;20047;-80
2020/12/25 00:39:17;;;;;;;5.72;3.67;;;;;;;5.47;82.72;100316.44;4961394;28;20081;-82
2020/12/25 00:41:45;;;;;;;11.35;4.75;;;;;;;5.65;86.74;100315.09;4956754;29;20048;-81
2020/12/25 00:44:13;;;;;;;7.00;4.18;;;;;;;5.76;86.29;100313.00;4954721;28;20102;-82
2020/12/25 00:46:39;;;;;;;6.38;3.15;;;;;;;5.76;81.04;100304.25;4959690;28;20065;-81
2020/12/25 00:49:06;;;;;;;6.55;3.22;;;;;;;5.79;81.49;100319.94;4960583;28;20048;-82
2020/12/25 00:51:33;;;;;;;6.70;3.47;;;;;;;5.80;83.19;100319.03;4970034;29;20078;-80
2020/12/25 00:54:00;;;;;;;7.00;3.80;;;;;;;5.81;82.63;100324.25;4969779;29;20154;-80
2020/12/25 00:56:26;;;;;;;6.43;3.47;;;;;;;5.80;82.07;100326.91;4973419;28;20047;-79
2020/12/25 00:58:52;;;;;;;5.68;3.30;;;;;;;5.83;83.38;100329.44;4970685;28;20051;-80
2020/12/25 01:01:19;;;;;;;4.22;2.97;;;;;;;5.80;80.97;100333.03;4967808;28;20115;-82
2020/12/25 01:03:46;;;;;;;5.88;3.40;;;;;;;5.78;80.76;100342.72;4958026;28;20127;-82
2020/12/25 01:06:17;;;;;;;6.22;3.20;;;;;;;5.74;80.99;100337.59;4948253;28;20048;-81
2020/12/25 01:08:46;;;;;;;4.65;3.10;;;;;;;5.71;81.27;100340.28;4964974;28;20051;-81
2020/12/25 01:11:13;;;;;;;6.05;3.45;;;;;;;5.62;81.80;100337.03;4958799;28;20110;-81
2020/12/25 01:13:40;;;;;;;7.20;3.60;;;;;;;5.62;82.08;100350.16;4945492;29;20054;-82
2020/12/25 01:16:08;;;;;;;5.70;3.47;;;;;;;5.61;81.67;100350.22;4961587;29;20103;-80
2020/12/25 01:18:35;;;;;;;7.10;3.15;;;;;;;5.62;80.03;100351.94;4959423;28;20135;-80
2020/12/25 01:21:03;;;;;;;7.57;3.22;;;;;;;5.59;79.60;100360.75;4963104;28;20067;-81
2020/12/25 01:23:29;;;;;;;8.18;4.57;;;;;;;5.57;79.40;100357.31;4965671;28;20091;-79
2020/12/25 01:25:56;;;;;;;7.28;3.53;;;;;;;5.55;78.74;100368.75;4949529;28;20055;-81
2020/12/25 01:28:22;;;;;;;6.50;3.33;;;;;;;5.52;79.18;100358.31;4953744;29;20627;-81
2020/12/25 01:30:48;;;;;;;20.02;9.02;;;;;;;5.51;78.27;100373.22;4943375;29;20137;-81
2020/12/25 01:33:14;;;;;;;13.10;6.18;;;;;;;5.50;77.71;100379.41;4951116;28;20058;-81
2020/12/25 01:35:41;;;;;;;7.93;4.40;;;;;;;5.48;77.63;100377.72;4955357;28;20130;-80
2020/12/25 01:38:07;;;;;;;8.15;4.03;;;;;;;5.45;78.24;100378.66;4952878;28;20047;-81
2020/12/25 01:40:34;;;;;;;5.43;3.15;;;;;;;5.47;77.55;100381.25;4974219;28;20082;-80
2020/12/25 01:43:00;;;;;;;4.78;3.10;;;;;;;5.42;77.13;100385.75;4957515;29;20051;-81
2020/12/25 01:45:27;;;;;;;4.82;2.55;;;;;;;5.37;76.64;100379.72;4958164;28;20051;-81
2020/12/25 01:47:54;;;;;;;5.65;2.75;;;;;;;5.36;76.00;100380.63;4958053;28;20055;-82
2020/12/25 01:50:23;;;;;;;5.38;3.00;;;;;;;5.33;76.11;100378.13;4959591;28;20049;-80
2020/12/25 01:52:52;;;;;;;5.28;2.58;;;;;;;5.31;76.33;100383.41;4960299;28;20068;-81
2020/12/25 01:55:24;;;;;;;6.95;3.30;;;;;;;5.28;76.76;100381.72;4957650;28;20374;-81
2020/12/25 01:57:52;;;;;;;5.82;2.88;;;;;;;5.29;77.45;100382.56;4957666;28;20059;-80
2020/12/25 02:00:19;;;;;;;5.25;2.85;;;;;;;5.32;77.72;100392.16;4943814;28;20135;-81
2020/12/25 02:02:46;;;;;;;6.07;2.47;;;;;;;5.33;76.04;100391.25;4961835;28;20069;-80
2020/12/25 02:05:13;;;;;;;5.85;2.70;;;;;;;5.30;76.19;100394.81;4949112;28;20071;-81
2020/12/25 02:07:39;;;;;;;5.25;2.63;;;;;;;5.27;75.97;100400.13;4948721;29;20055;-81
2020/12/25 02:10:06;;;;;;;5.20;2.65;;;;;;;5.23;76.30;100401.97;4952048;28;20051;-81
2020/12/25 02:12:32;;;;;;;5.78;2.60;;;;;;;5.17;76.98;100401.28;4965106;28;20051;-81
2020/12/25 02:14:59;;;;;;;4.07;2.20;;;;;;;5.14;76.33;100398.72;4956629;28;20047;-81
2020/12/25 02:17:25;;;;;;;4.10;2.33;;;;;;;5.16;76.01;100412.66;4956978;28;20058;-81
2020/12/25 02:19:52;;;;;;;3.78;2.42;;;;;;;5.10;75.61;100405.78;4956383;28;20063;-81
2020/12/25 02:22:18;;;;;;;4.97;2.10;;;;;;;5.07;75.56;100424.22;4958049;28;20047;-82
2020/12/25 02:24:44;;;;;;;6.13;2.35;;;;;;;5.08;75.57;100409.34;4957466;28;20057;-80
2020/12/25 02:27:11;;;;;;;4.10;2.20;;;;;;;5.02;76.06;100409.53;4960970;28;20552;-81
2020/12/25 02:29:37;;;;;;;3.83;2.50;;;;;;;4.98;76.63;100406.09;4961915;28;20055;-79
2020/12/25 02:32:03;;;;;;;4.90;2.25;;;;;;;4.96;77.16;100417.53;4966198;28;20082;-79
2020/12/25 02:34:30;;;;;;;5.70;2.33;;;;;;;4.93;76.97;100410.59;4962814;29;20325;-81
2020/12/25 02:36:56;;;;;;;3.70;2.30;;;;;;;4.92;77.55;100419.34;4959883;28;20498;-79
2020/12/25 02:39:22;;;;;;;3.92;2.25;;;;;;;4.90;76.96;100424.63;4962077;28;20443;-82
2020/12/25 02:41:49;;;;;;;4.00;2.05;;;;;;;4.95;76.53;100416.66;4962289;28;20513;-82
2020/12/25 02:44:15;;;;;;;3.15;2.03;;;;;;;4.96;77.27;100420.16;4961006;28;20146;-82
2020/12/25 02:46:41;;;;;;;4.22;2.35;;;;;;;4.92;76.74;100424.59;4958688;28;20077;-81
2020/12/25 02:49:07;;;;;;;4.07;2.20;;;;;;;4.92;77.14;100424.59;4960878;28;20448;-82
2020/12/25 02:51:34;;;;;;;3.70;2.22;;;;;;;4.86;78.13;100430.00;4955387;28;20074;-82
2020/12/25 02:54:00;;;;;;;2.78;2.22;;;;;;;4.83;77.36;100432.69;4958321;28;20502;-82
2020/12/25 02:56:26;;;;;;;3.25;1.90;;;;;;;4.79;77.99;100429.28;4961867;28;20057;-81
2020/12/25 02:58:53;;;;;;;3.83;2.47;;;;;;;4.80;77.48;100438.00;4962065;28;20413;-81
2020/12/25 03:01:19;;;;;;;2.95;1.90;;;;;;;4.78;77.89;100437.19;4962000;29;20170;-82
2020/12/25 03:03:46;;;;;;;3.42;2.05;;;;;;;4.80;77.19;100440.63;4955280;28;20146;-82
2020/12/25 03:06:12;;;;;;;2.85;1.90;;;;;;;4.84;76.56;100445.78;4960260;28;20607;-82
2020/12/25 03:08:38;;;;;;;3.53;2.08;;;;;;;4.78;76.86;100443.28;4958283;28;20051;-80
2020/12/25 03:11:05;;;;;;;2.95;2.10;;;;;;;4.72;77.01;100442.56;4943178;29;20059;-81
2020/12/25 03:13:36;;;;;;;3.40;2.25;;;;;;;4.70;77.77;100460.09;4958430;28;20057;-81
2020/12/25 03:16:03;;;;;;;;;;;;;;;4.66;78.00;100459.31;4943373;29;20048;-81
2020/12/25 03:18:30;;;;;;;4.70;2.10;;;;;;;4.64;78.05;100468.97;4951982;29;19923;-81
2020/12/25 03:20:57;;;;;;;3.78;2.03;;;;;;;4.65;78.34;100464.59;4961617;28;20137;-82
2020/12/25 03:23:23;;;;;;;3.58;2.20;;;;;;;4.64;78.90;100471.59;4958708;28;20554;-82
2020/12/25 03:25:50;;;;;;;2.30;2.10;;;;;;;4.67;78.97;100475.91;4956927;29;20057;-82
2020/12/25 03:28:16;;;;;;;3.38;2.15;;;;;;;4.68;78.71;100477.63;4960887;28;20136;-82
2020/12/25 03:30:42;;;;;;;2.60;2.17;;;;;;;4.71;78.40;100481.06;4959426;28;20051;-81
2020/12/25 03:33:09;;;;;;;4.13;1.98;;;;;;;4.75;77.72;100480.06;4953648;29;20083;-82
2020/12/25 03:35:49;;;;;;;2.75;1.90;;;;;;;4.72;78.12;100485.38;4959708;29;20047;-79
2020/12/25 03:38:15;;;;;;;3.03;2.10;;;;;;;4.73;77.69;100487.09;4979871;28;20119;-79
2020/12/25 03:40:41;;;;;;;2.38;1.65;;;;;;;4.71;77.95;100488.94;4964278;28;20138;-81
2020/12/25 03:43:08;;;;;;;2.70;1.88;;;;;;;4.72;78.00;100487.19;4961839;28;20057;-81
2020/12/25 03:45:34;;;;;;;3.88;2.13;;;;;;;4.71;78.00;100488.06;4961007;28;20055;-81
2020/12/25 03:48:01;;;;;;;3.15;2.10;;;;;;;4.71;77.39;100491.56;4959825;28;20075;-81
2020/12/25 03:50:28;;;;;;;3.42;2.50;;;;;;;4.72;77.35;100495.88;4961641;28;20051;-81
2020/12/25 03:52:55;;;;;;;3.38;2.30;;;;;;;4.69;77.38;100502.97;4962196;28;20047;-81
2020/12/25 03:55:21;;;;;;;4.65;2.08;;;;;;;4.68;77.61;100504.72;4958994;28;20062;-82
2020/12/25 03:57:48;;;;;;;4.30;1.90;;;;;;;4.69;77.80;100508.22;4961462;28;20107;-81
2020/12/25 04:00:17;;;;;;;5.18;2.10;;;;;;;4.71;77.26;100514.31;4963140;29;20475;-81
2020/12/25 04:02:44;;;;;;;3.03;1.85;;;;;;;4.67;77.51;100515.25;4967671;28;20055;-83
2020/12/25 04:05:11;;;;;;;3.60;2.10;;;;;;;4.69;77.89;100518.72;4966520;29;20375;-82
2020/12/25 04:07:37;;;;;;;2.63;1.95;;;;;;;4.68;77.17;100514.34;4968669;29;20142;-83
2020/12/25 04:10:04;;;;;;;3.67;2.17;;;;;;;4.68;78.19;100522.22;4968156;28;20073;-81
2020/12/25 04:12:30;;;;;;;5.85;2.30;;;;;;;4.69;77.43;100526.56;4970987;28;20051;-81
2020/12/25 04:14:57;;;;;;;3.97;2.20;;;;;;;4.72;78.13;100526.53;4967133;28;20506;-83
2020/12/25 04:17:24;;;;;;;3.50;1.88;;;;;;;4.75;78.01;100535.16;4957791;29;20506;-82
2020/12/25 04:19:50;;;;;;;3.05;2.08;;;;;;;4.79;77.44;100528.97;4958482;29;20493;-81
2020/12/25 04:22:17;;;;;;;2.17;1.80;;;;;;;4.81;77.13;100529.81;4960222;28;20043;-82
2020/12/25 04:24:44;;;;;;;4.47;2.53;;;;;;;4.83;77.82;100540.25;4957872;28;20043;-81
2020/12/25 04:27:10;;;;;;;3.33;2.10;;;;;;;4.90;77.03;100547.97;4960731;28;20058;-82
2020/12/25 04:29:37;;;;;;;4.15;2.00;;;;;;;4.87;76.53;100550.69;4961023;28;20484;-79
2020/12/25 04:32:03;;;;;;;2.90;2.20;;;;;;;4.81;77.13;100548.16;4975013;28;20039;-81
2020/12/25 04:34:29;;;;;;;4.05;2.42;;;;;;;4.85;77.34;100559.47;4971466;29;20079;-81
2020/12/25 04:36:56;;;;;;;3.65;2.20;;;;;;;4.85;77.11;100565.59;4961767;29;20130;-82
2020/12/25 04:39:22;;;;;;;4.65;2.22;;;;;;;4.80;76.38;100556.06;4957318;28;20055;-81
2020/12/25 04:41:49;;;;;;;2.63;2.25;;;;;;;4.81;76.94;100560.41;4962749;28;20130;-81
2020/12/25 04:44:15;;;;;;;3.95;2.30;;;;;;;4.85;76.66;100568.22;4954373;29;20051;-81
2020/12/25 04:46:41;;;;;;;3.92;2.40;;;;;;;4.89;76.75;100577.72;4957792;28;20059;-81
2020/12/25 04:49:09;;;;;;;3.88;2.13;;;;;;;4.92;76.10;100579.41;4960546;28;20055;-82
2020/12/25 04:51:35;;;;;;;3.55;2.05;;;;;;;4.91;76.48;100582.94;4951110;28;20048;-81
2020/12/25 04:54:02;;;;;;;3.10;2.20;;;;;;;4.90;76.05;100589.94;4951623;28;20051;-80
2020/12/25 04:56:28;;;;;;;4.43;2.20;;;;;;;4.91;77.12;100588.19;4949340;28;20052;-81
2020/12/25 04:58:55;;;;;;;3.33;2.30;;;;;;;4.87;77.02;100592.66;4946227;28;20150;-81
2020/12/25 05:01:21;;;;;;;3.40;2.53;;;;;;;4.87;76.99;100584.78;4953295;28;20051;-82
2020/12/25 05:03:47;;;;;;;4.78;2.13;;;;;;;4.87;76.89;100590.03;4954229;29;20075;-82
2020/12/25 05:06:18;;;;;;;5.15;2.03;;;;;;;4.85;77.36;100590.97;4948678;29;20061;-81
2020/12/25 05:08:49;;;;;;;4.10;2.55;;;;;;;4.85;77.11;100604.06;4959594;28;20479;-81
2020/12/25 05:11:18;;;;;;;4.82;2.30;;;;;;;4.84;77.10;100597.97;4958955;28;20050;-83
2020/12/25 05:13:52;;;;;;;3.80;2.20;;;;;;;4.84;77.76;100594.47;4958007;28;20447;-81
2020/12/25 05:16:21;;;;;;;3.08;2.25;;;;;;;4.84;77.78;100599.72;4958798;29;20106;-79
2020/12/25 05:18:52;;;;;;;3.30;2.42;;;;;;;4.79;77.88;100596.31;4970181;29;20070;-79
2020/12/25 05:21:21;;;;;;;3.90;2.70;;;;;;;4.79;76.44;100602.44;4967339;28;20051;-82
2020/12/25 05:23:49;;;;;;;2.88;2.40;;;;;;;4.75;76.69;100603.38;4961892;28;20074;-81
2020/12/25 05:26:17;;;;;;;3.92;2.53;;;;;;;4.74;76.06;100603.41;4969178;28;20134;-79
2020/12/25 05:28:49;;;;;;;4.30;2.38;;;;;;;4.67;76.33;100610.53;4985534;28;20082;-79
2020/12/25 05:31:17;;;;;;;3.15;2.20;;;;;;;4.67;76.57;100617.53;4974925;28;20111;-80
2020/12/25 05:33:47;;;;;;;3.05;2.42;;;;;;;4.62;75.52;100620.25;4972379;28;20053;-79
2020/12/25 05:36:14;;;;;;;3.83;2.43;;;;;;;4.61;75.39;100630.75;4967967;28;20067;-79
2020/12/25 05:38:47;;;;;;;3.20;2.55;;;;;;;4.59;75.59;100630.78;4967642;28;20519;-81
2020/12/25 05:41:14;;;;;;;3.28;2.65;;;;;;;4.58;75.55;100635.16;4967650;28;20115;-79
2020/12/25 05:43:46;;;;;;;2.55;2.33;;;;;;;4.55;75.21;100640.50;4966908;28;20043;-81
2020/12/25 05:46:13;;;;;;;4.25;2.67;;;;;;;4.53;75.30;100636.16;4958131;28;20056;-81
2020/12/25 05:48:39;;;;;;;4.13;2.92;;;;;;;4.48;74.84;100636.25;4959809;29;20047;-81
2020/12/25 05:51:08;;;;;;;4.43;2.58;;;;;;;4.49;73.86;100644.97;4963031;28;20054;-81
2020/12/25 05:53:38;;;;;;;4.28;2.90;;;;;;;4.51;73.97;100643.19;4956034;29;20075;-81
2020/12/25 05:56:06;;;;;;;5.28;3.17;;;;;;;4.48;74.42;100651.13;4959733;28;20168;-81
2020/12/25 05:58:34;;;;;;;3.90;3.13;;;;;;;4.50;73.83;100654.59;4949900;29;20059;-82
2020/12/25 06:01:00;;;;;;;4.80;2.80;;;;;;;4.47;74.17;100668.59;4941121;29;20051;-82
2020/12/25 06:03:27;;;;;;;4.43;3.00;;;;;;;4.46;74.73;100674.75;4955588;28;20123;-82
2020/12/25 06:05:55;;;;;;;5.45;2.97;;;;;;;4.43;75.00;100669.53;4937518;28;20135;-82
2020/12/25 06:08:46;;;;;;;4.63;2.33;;;;;;;4.44;75.04;100678.28;4952193;29;20173;-83
2020/12/25 06:11:17;;;;;;;4.70;2.55;;;;;;;4.41;75.62;100680.94;4953715;28;20070;-81
2020/12/25 06:13:43;;;;;;;4.40;2.70;;;;;;;4.39;75.12;100680.13;4963459;28;20392;-81
2020/12/25 06:16:16;;;;;;;3.50;2.50;;;;;;;4.39;75.48;100685.38;4964880;28;20051;-82
2020/12/25 06:19:04;;;;;;;4.35;2.85;;;;;;;4.36;75.37;100685.44;4947508;28;20094;-80
2020/12/25 06:21:33;;;;;;;4.80;2.65;;;;;;;4.33;75.51;100681.09;4973948;28;20047;-81
2020/12/25 06:24:02;;;;;;;4.30;2.60;;;;;;;4.38;75.47;100691.50;4967075;28;20125;-80
2020/12/25 06:26:30;;;;;;;4.15;2.65;;;;;;;4.35;75.43;100700.28;4958386;28;20087;-81
2020/12/25 06:29:02;;;;;;;4.53;2.83;;;;;;;4.34;76.08;100698.56;4961116;28;20047;-82
2020/12/25 06:31:41;;;;;;;5.47;2.80;;;;;;;4.36;75.92;100717.75;4972019;28;20054;-81
2020/12/25 06:34:08;;;;;;;3.40;2.83;;;;;;;4.38;75.91;100715.97;4968864;28;20066;-81
2020/12/25 06:36:35;;;;;;;5.63;3.20;;;;;;;4.33;75.90;100722.16;4966705;28;20059;-82
2020/12/25 06:39:11;;;;;;;4.43;2.70;;;;;;;4.33;76.00;100725.66;4969435;28;20118;-80
2020/12/25 06:41:37;;;;;;;4.18;3.00;;;;;;;4.29;75.59;100721.34;4978911;28;20184;-83
2020/12/25 06:44:08;;;;;;;6.53;3.10;;;;;;;4.31;75.36;100729.19;4976603;28;20469;-83
2020/12/25 06:46:35;;;;;;;4.22;3.15;;;;;;;4.30;75.25;100733.56;4952584;29;20087;-81
2020/12/25 06:49:07;;;;;;;5.70;3.35;;;;;;;4.28;75.41;100730.09;4962531;28;20119;-83
2020/12/25 06:51:46;;;;;;;4.15;3.03;;;;;;;4.24;75.28;100733.69;4967730;29;20069;-85
2020/12/25 06:54:20;;;;;;;4.25;3.10;;;;;;;4.21;75.20;100744.22;4972138;28;20051;-84
2020/12/25 06:56:51;;;;;;;6.00;3.83;;;;;;;4.18;75.71;100749.50;4974305;28;20082;-80
2020/12/25 06:59:19;;;;;;;5.10;3.22;;;;;;;4.15;75.42;100752.16;4969320;29;20111;-80
2020/12/25 07:01:48;;;;;;;4.78;3.38;;;;;;;4.13;75.09;100757.41;4967598;28;20086;-80
2020/12/25 07:04:31;;;;;;;4.68;3.35;;;;;;;4.13;74.88;100759.16;4956473;28;20134;-83
2020/12/25 07:07:04;;;;;;;4.90;3.50;;;;;;;4.14;73.97;100753.91;4964927;28;20075;-82
2020/12/25 07:09:35;;;;;;;7.68;3.47;;;;;;;4.13;74.08;100761.78;4958819;28;20074;-80
2020/12/25 07:12:05;;;;;;;3.92;3.50;;;;;;;4.09;74.13;100770.63;4964241;28;20134;-81
2020/12/25 07:14:31;;;;;;;6.65;3.95;;;;;;;4.10;74.41;100764.44;4967049;28;20167;-82
2020/12/25 07:16:58;;;;;;;5.55;3.67;;;;;;;4.07;73.82;100768.00;4965626;29;20067;-83
2020/12/25 07:19:24;;;;;;;5.28;3.30;;;;;;;4.12;74.44;100775.78;4978958;28;20115;-79
2020/12/25 07:21:51;;;;;;;6.43;3.67;;;;;;;4.12;74.68;100770.53;4974405;28;20081;-81
2020/12/25 07:24:18;;;;;;;4.93;3.60;;;;;;;4.09;74.88;100773.22;4966544;28;20063;-80
2020/12/25 07:26:47;;;;;;;5.85;3.70;;;;;;;4.12;75.18;100778.41;4961094;29;20063;-81
2020/12/25 07:29:15;;;;;;;5.05;3.42;;;;;;;4.12;73.47;100774.03;4970880;28;20467;-79
2020/12/25 07:31:49;;;;;;;4.88;3.70;;;;;;;4.05;73.92;100785.50;4962352;28;20055;-80
2020/12/25 07:34:20;;;;;;;4.50;3.58;;;;;;;4.03;74.49;100792.53;4961407;29;20268;-80
2020/12/25 07:36:52;;;;;;;5.65;3.45;;;;;;;4.00;74.81;100802.16;4977120;28;20073;-82
2020/12/25 07:39:20;;;;;;;8.20;3.53;;;;;;;3.95;75.00;100796.97;4959656;29;20134;-80
2020/12/25 07:41:47;;;;;;;4.38;3.38;;;;;;;3.97;75.15;100799.59;4955649;28;20051;-80
2020/12/25 07:44:13;;;;;;;4.50;3.60;;;;;;;3.95;74.36;100801.34;4961112;28;20058;-83
2020/12/25 07:46:40;;;;;;;5.88;4.03;;;;;;;3.92;75.33;100804.03;4962631;28;20055;-82
2020/12/25 07:49:07;;;;;;;5.88;3.88;;;;;;;3.93;75.61;100813.63;4961672;28;20089;-81
2020/12/25 07:51:35;;;;;;;8.18;3.92;;;;;;;3.95;75.13;100814.47;4967759;29;20055;-83
2020/12/25 07:54:03;;;;;;;5.63;3.50;;;;;;;3.92;74.59;100814.53;4960979;29;20036;-80
2020/12/25 07:56:31;;;;;;;6.75;3.80;;;;;;;3.89;74.59;100807.56;4960299;29;20055;-81
2020/12/25 07:58:58;;;;;;;7.18;3.80;;;;;;;3.93;73.91;100822.38;4955610;29;20081;-82
2020/12/25 08:01:26;;;;;;;6.10;3.63;;;;;;;4.00;74.41;100833.63;4961109;28;20114;-81
2020/12/25 08:03:53;;;;;;;4.15;3.08;;;;;;;4.00;73.42;100836.22;4952778;28;20066;-83
2020/12/25 08:06:23;;;;;;;5.80;3.28;;;;;;;4.02;73.99;100839.72;4972323;28;20097;-78
2020/12/25 08:09:09;;;;;;;4.32;3.50;;;;;;;4.03;73.75;100846.69;4976094;28;20356;-79
2020/12/25 08:11:37;;;;;;;6.85;3.50;;;;;;;4.02;73.28;100853.69;4962369;29;20055;-80
2020/12/25 08:14:09;;;;;;;6.00;3.53;;;;;;;4.04;74.03;100856.28;4968602;28;20069;-79
2020/12/25 08:16:37;;;;;;;5.07;3.63;;;;;;;4.00;72.68;100854.56;4963431;28;20062;-79
2020/12/25 08:19:05;;;;;;;3.63;2.92;;;;;;;3.99;71.95;100864.19;4963790;28;20167;-80
2020/12/25 08:21:39;;;;;;;7.50;3.58;;;;;;;3.97;72.57;100868.56;4953075;28;20056;-80
2020/12/25 08:24:07;;;;;;;4.15;2.88;;;;;;;4.04;71.79;100869.38;4955438;28;20055;-80
2020/12/25 08:26:37;;;;;;;4.82;3.00;;;;;;;4.07;71.97;100874.59;4956185;28;20170;-81
2020/12/25 08:29:04;;;;;;;4.45;3.22;;;;;;;4.09;70.98;100875.44;4956836;28;20051;-82
2020/12/25 08:31:35;;;;;;;4.15;3.10;;;;;;;4.13;72.03;100884.97;4956527;29;20058;-80
2020/12/25 08:34:02;;;;;;;5.32;3.00;;;;;;;4.10;71.75;100879.75;4957778;28;20051;-81
2020/12/25 08:36:29;;;;;;;3.00;2.40;;;;;;;4.11;71.88;100884.13;4959871;28;20067;-81
2020/12/25 08:39:08;;;;;;;3.08;2.42;;;;;;;4.11;70.49;100885.00;4958958;28;20051;-81
2020/12/25 08:41:35;;;;;;;4.30;3.05;;;;;;;4.13;71.76;100893.72;4959188;28;20554;-81
2020/12/25 08:44:12;;;;;;;3.30;2.63;;;;;;;4.16;71.67;100898.91;4959107;28;20059;-82
2020/12/25 08:46:39;;;;;;;5.70;2.90;;;;;;;4.22;70.81;100904.09;4956675;29;20067;-84
2020/12/25 08:49:07;;;;;;;4.22;2.70;;;;;;;4.32;70.76;100907.44;4957498;29;20051;-80
2020/12/25 08:51:37;;;;;;;4.13;2.38;;;;;;;4.40;71.12;100909.97;4960361;28;20142;-82
2020/12/25 08:54:04;;;;;;;5.78;2.53;;;;;;;4.47;70.02;100911.63;4954652;28;20463;-81
2020/12/25 08:56:35;;;;;;;4.05;2.50;;;;;;;4.47;70.03;100917.72;4960289;28;20054;-79
2020/12/25 08:59:02;;;;;;;4.00;2.97;;;;;;;4.48;69.68;100921.22;4958099;29;20055;-80
2020/12/25 09:01:31;;;;;;;3.88;2.67;;;;;;;4.53;69.00;100925.53;4955092;29;20052;-80
2020/12/25 09:04:00;;;;;;;3.83;2.42;;;;;;;4.55;69.42;100923.75;4959927;28;20055;-81
2020/12/25 09:06:30;;;;;;;3.25;2.28;;;;;;;4.57;68.46;100927.19;4962514;28;20051;-81
2020/12/25 09:08:56;;;;;;;4.18;2.70;;;;;;;4.52;68.46;100934.28;4958210;28;20063;-81
2020/12/25 09:11:25;;;;;;;4.97;2.33;;;;;;;4.55;69.50;100934.25;4963629;28;20166;-82
2020/12/25 09:13:52;;;;;;;2.45;2.10;;;;;;;4.55;68.14;100930.75;4968521;28;20078;-81
2020/12/25 09:16:19;;;;;;;5.40;2.40;;;;;;;4.50;68.19;100941.28;4966894;28;20074;-81
2020/12/25 09:18:46;;;;;;;3.38;2.58;;;;;;;4.47;68.15;100946.56;4945737;29;20119;-84
2020/12/25 09:21:14;;;;;;;6.35;2.30;;;;;;;4.42;68.30;100945.75;4951385;28;20103;-83
2020/12/25 09:23:41;;;;;;;2.95;2.30;;;;;;;4.33;68.48;100943.28;4958352;28;20047;-80
2020/12/25 09:26:13;;;;;;;3.53;2.40;;;;;;;4.29;69.03;100952.06;4953802;29;20128;-82
2020/12/25 09:28:41;;;;;;;3.40;2.20;;;;;;;4.19;69.37;100942.56;4958206;29;20055;-81
2020/12/25 09:31:11;;;;;;;5.50;1.92;;;;;;;4.11;69.99;100947.91;4963270;29;20406;-79
2020/12/25 09:33:37;;;;;;;3.33;2.13;;;;;;;4.07;69.35;100958.44;4958861;28;20130;-79
2020/12/25 09:36:06;;;;;;;3.17;2.10;;;;;;;4.00;69.78;100959.41;4961452;28;20662;-81
2020/12/25 09:38:33;;;;;;;2.95;1.92;;;;;;;3.94;70.55;100948.97;4960275;28;20059;-80
2020/12/25 09:41:00;;;;;;;3.88;2.03;;;;;;;4.01;69.98;100962.00;4959190;28;20103;-79
2020/12/25 09:43:32;;;;;;;2.63;1.88;;;;;;;3.93;69.50;100958.63;4972657;28;20058;-83
2020/12/25 09:46:02;;;;;;;2.20;1.77;;;;;;;3.94;69.35;100964.69;4971740;28;20051;-81
2020/12/25 09:48:49;;;;;;;2.95;2.22;;;;;;;3.86;70.23;100965.66;4974438;28;20051;-81
2020/12/25 09:51:22;;;;;;;2.78;1.90;;;;;;;3.82;70.40;100961.31;4971858;29;20051;-81
2020/12/25 09:53:49;;;;;;;6.72;2.00;;;;;;;3.90;70.18;100970.88;4969668;28;20118;-79
2020/12/25 09:56:15;;;;;;;4.60;2.05;;;;;;;3.85;69.28;100958.69;4966878;28;20049;-81
2020/12/25 09:58:42;;;;;;;3.58;1.83;;;;;;;3.93;70.55;100957.75;4967845;28;20071;-80
2020/12/25 10:01:09;;;;;;;4.60;2.00;;;;;;;4.00;70.91;100967.25;4970265;28;20070;-82
2020/12/25 10:03:36;;;;;;;3.75;2.00;;;;;;;4.05;69.78;100978.56;4971652;28;20082;-80
2020/12/25 10:06:03;;;;;;;3.50;1.83;;;;;;;4.07;68.82;100975.03;4968538;29;20052;-80
2020/12/25 10:08:29;;;;;;;3.03;1.70;;;;;;;4.09;68.03;100978.50;4969214;28;20130;-83
2020/12/25 10:10:56;;;;;;;2.47;1.70;;;;;;;4.14;67.92;100986.31;4969186;29;20086;-81
2020/12/25 10:13:24;;;;;;;2.45;1.80;;;;;;;4.20;68.00;100983.63;4968049;28;20059;-82
2020/12/25 10:15:52;;;;;;;2.40;1.70;;;;;;;4.19;67.63;100992.38;4971288;29;20047;-82
2020/12/25 10:18:19;;;;;;;5.45;1.90;;;;;;;4.27;68.02;100985.28;4972203;28;20062;-80
2020/12/25 10:20:47;;;;;;;2.00;1.77;;;;;;;4.49;67.85;100984.13;4968261;28;20043;-80
2020/12/25 10:23:14;;;;;;;3.47;2.00;;;;;;;4.58;66.82;100965.66;4960110;29;20216;-80
2020/12/25 10:25:40;;;;;;;4.32;2.03;;;;;;;4.82;67.03;100980.19;4972061;28;20070;-82
2020/12/25 10:28:07;;;;;;;2.22;1.90;;;;;;;4.95;65.14;100986.13;4963865;28;20055;-81
2020/12/25 10:30:34;;;;;;;2.50;1.65;;;;;;;4.90;64.52;100966.94;4965835;28;20050;-82
2020/12/25 10:33:01;;;;;;;2.50;2.05;;;;;;;4.93;63.67;100961.66;4957959;29;20050;-84
2020/12/25 10:35:27;;;;;;;3.20;1.80;;;;;;;4.99;64.01;100982.59;4960948;28;20059;-83
2020/12/25 10:37:54;;;;;;;3.38;1.70;;;;;;;4.97;63.31;100973.88;4953236;29;20043;-83
2020/12/25 10:40:28;;;;;;;3.22;1.70;;;;;;;4.89;63.48;100970.47;4960407;28;20086;-83
2020/12/25 10:42:55;;;;;;;3.88;1.85;;;;;;;4.91;63.60;100971.31;4954871;29;20055;-82
2020/12/25 10:45:21;;;;;;;2.72;1.90;;;;;;;4.88;62.08;100977.47;4963080;28;20047;-82
2020/12/25 10:47:48;;;;;;;7.07;2.53;;;;;;;5.01;67.96;100987.81;4961431;28;20059;-84
2020/12/25 10:50:14;;;;;;;8.40;2.63;;;;;;;5.01;69.44;100975.56;4971683;28;20051;-80
2020/12/25 10:52:41;;;;;;;5.68;2.30;;;;;;;5.03;67.58;100989.53;5525244;23;20128;-82
2020/12/25 10:55:07;;;;;;;2.92;2.00;;;;;;;5.00;65.65;100989.56;4990192;28;20042;-84
2020/12/25 10:57:35;;;;;;;2.75;1.58;;;;;;;4.98;63.98;100978.22;4997799;28;20043;-81
2020/12/25 11:00:02;;;;;;;3.45;1.90;;;;;;;4.81;63.06;100988.97;4998706;28;20051;-82
2020/12/25 11:02:29;;;;;;;3.15;1.80;;;;;;;4.72;63.23;100980.34;4999634;28;20054;-81
2020/12/25 11:04:55;;;;;;;5.88;2.40;;;;;;;4.67;64.51;100980.41;5003548;28;20058;-82
2020/12/25 11:07:22;;;;;;;4.15;2.03;;;;;;;4.71;63.41;100990.00;4991371;28;20063;-81
2020/12/25 11:09:48;;;;;;;1.85;1.50;;;;;;;4.73;62.78;100989.94;5000030;28;20540;-81
2020/12/25 11:12:14;;;;;;;2.83;1.70;;;;;;;4.75;60.96;100993.41;4998954;28;20617;-82
2020/12/25 11:14:41;;;;;;;2.72;1.75;;;;;;;4.73;60.61;100989.94;5001404;28;20038;-84
2020/12/25 11:17:08;;;;;;;1.88;1.67;;;;;;;4.70;61.60;100990.00;5002257;28;20144;-82
2020/12/25 11:19:34;;;;;;;5.20;2.00;;;;;;;4.70;61.21;100997.88;5000057;28;20065;-81
2020/12/25 11:22:00;;;;;;;3.97;1.88;;;;;;;4.67;59.90;100990.03;4996087;28;20118;-80
2020/12/25 11:24:29;;;;;;;3.42;1.75;;;;;;;4.59;60.65;100987.50;4994532;28;20074;-82
2020/12/25 11:26:55;;;;;;;2.75;1.63;;;;;;;4.54;60.49;100981.47;4999205;28;20047;-84
2020/12/25 11:29:22;;;;;;;2.85;1.80;;;;;;;4.50;61.33;100980.63;5001636;28;20536;-82
2020/12/25 11:31:48;;;;;;;2.63;1.63;;;;;;;4.46;61.17;100968.44;5001942;28;20058;-82
2020/12/25 11:34:22;;;;;;;2.47;1.35;;;;;;;4.48;61.61;100974.53;5006352;28;20046;-82
2020/12/25 11:36:52;;;;;;;2.00;1.80;;;;;;;4.55;61.24;100972.72;4998349;28;20081;-82
2020/12/25 11:39:19;;;;;;;3.97;1.83;;;;;;;4.55;61.31;100973.59;5005086;28;20054;-82